Time;durP1;ratioP1;P1;durP2;ratioP2;P2;SDS_P1;SDS_P2;PMS_P1;PMS_P2;Temp;Humidity;BMP_temperature;BMP_pressure;BME280_temperature;BME280_humidity;BME280_pressure;Samples;Min_cycle;Max_cycle;Signal;HPM_P1;HPM_P2
2022/07/24 00:00:23;;;;;;;7.05;4.88;;;21.80;99.90;22.00;98443.00;;;;5036655;28;82181;-60
2022/07/24 00:02:49;;;;;;;6.70;4.88;;;21.80;99.90;22.00;98439.00;;;;5030327;28;82962;-60
2022/07/24 00:05:16;;;;;;;9.10;5.05;;;21.80;99.90;22.00;98440.00;;;;5041624;28;83379;-59
2022/07/24 00:07:43;;;;;;;6.47;4.93;;;21.80;99.90;22.00;98440.00;;;;5020956;28;82202;-60
2022/07/24 00:10:10;;;;;;;11.80;5.93;;;21.80;99.90;22.00;98442.00;;;;5019256;27;82154;-60
2022/07/24 00:12:37;;;;;;;8.23;5.70;;;21.80;99.90;22.00;98433.00;;;;5028000;28;82553;-60
2022/07/24 00:15:04;;;;;;;7.30;5.50;;;21.70;99.90;21.90;98439.00;;;;5015478;28;82652;-60
2022/07/24 00:17:30;;;;;;;7.15;5.70;;;21.70;99.90;21.80;98442.00;;;;5031188;28;82886;-60
2022/07/24 00:19:57;;;;;;;10.52;6.78;;;21.60;99.90;21.70;98449.00;;;;5039646;28;82595;-60
2022/07/24 00:22:26;;;;;;;11.23;6.35;;;21.50;99.90;21.50;98448.00;;;;5031811;28;83996;-60
2022/07/24 00:24:52;;;;;;;10.32;5.68;;;21.30;99.90;21.50;98444.00;;;;5008015;28;82251;-60
2022/07/24 00:27:18;;;;;;;8.75;6.18;;;21.30;99.90;21.40;98447.00;;;;5018708;28;81906;-60
2022/07/24 00:29:44;;;;;;;8.10;5.85;;;21.20;99.90;21.40;98439.00;;;;5027994;28;82529;-60
2022/07/24 00:32:10;;;;;;;9.38;6.93;;;21.20;99.90;21.30;98447.00;;;;5029387;28;82302;-60
2022/07/24 00:34:36;;;;;;;12.23;6.65;;;21.10;99.90;21.30;98443.00;;;;5031211;28;83126;-59
2022/07/24 00:37:03;;;;;;;10.88;6.45;;;21.10;99.90;21.20;98449.00;;;;5027967;28;82314;-61
2022/07/24 00:39:29;;;;;;;8.95;6.18;;;21.00;99.90;21.20;98447.00;;;;5010424;28;84053;-60
2022/07/24 00:41:55;;;;;;;11.80;6.50;;;21.00;99.90;21.10;98444.00;;;;5034904;28;83558;-59
2022/07/24 00:44:21;;;;;;;10.43;6.45;;;21.00;99.90;21.10;98449.00;;;;5035650;28;83252;-59
2022/07/24 00:46:48;;;;;;;8.52;6.35;;;20.90;99.90;21.00;98450.00;;;;5012942;28;82800;-60
2022/07/24 00:49:18;;;;;;;10.68;7.07;;;20.80;99.90;21.00;98448.00;;;;5036815;28;82294;-61
2022/07/24 00:51:47;;;;;;;8.90;6.05;;;20.70;99.90;20.80;98437.00;;;;5026530;28;82281;-61
2022/07/24 00:54:16;;;;;;;11.65;6.13;;;20.70;99.90;20.90;98447.00;;;;5038778;28;83341;-60
2022/07/24 00:56:44;;;;;;;11.30;6.55;;;20.60;99.90;20.80;98444.00;;;;5028186;28;82075;-62
2022/07/24 00:59:11;;;;;;;10.63;6.20;;;20.60;99.90;20.80;98434.00;;;;5020413;28;82142;-60
2022/07/24 01:01:39;;;;;;;8.95;5.95;;;20.60;99.90;20.80;98445.00;;;;5029610;28;84253;-61
2022/07/24 01:04:05;;;;;;;10.73;5.80;;;20.60;99.90;20.80;98447.00;;;;5012897;28;83456;-61
2022/07/24 01:06:32;;;;;;;12.05;6.40;;;20.60;99.90;20.80;98438.00;;;;5028319;28;82877;-59
2022/07/24 01:08:58;;;;;;;7.05;5.10;;;20.60;99.90;20.80;98446.00;;;;5015965;28;82668;-59
2022/07/24 01:11:25;;;;;;;7.85;5.88;;;20.60;99.90;20.80;98443.00;;;;5010693;28;83722;-59
2022/07/24 01:13:51;;;;;;;8.38;5.78;;;20.60;99.90;20.80;98438.00;;;;4989079;28;83629;-59
2022/07/24 01:16:18;;;;;;;8.40;5.72;;;20.60;99.90;20.80;98444.00;;;;5031093;28;81898;-60
2022/07/24 01:18:44;;;;;;;9.27;6.03;;;20.60;99.90;20.80;98455.00;;;;5022307;28;82112;-60
2022/07/24 01:21:10;;;;;;;9.10;5.93;;;20.60;99.90;20.80;98435.00;;;;5018206;28;82567;-59
2022/07/24 01:23:37;;;;;;;10.32;5.88;;;20.60;99.90;20.80;98442.00;;;;5016801;28;83295;-60
2022/07/24 01:26:07;;;;;;;8.80;5.03;;;20.60;99.90;20.90;98446.00;;;;5043605;28;81961;-60
2022/07/24 01:28:34;;;;;;;9.93;5.30;;;20.60;99.90;20.90;98450.00;;;;5005760;28;84860;-60
2022/07/24 01:31:01;;;;;;;7.20;5.03;;;20.70;99.90;21.00;98436.00;;;;5015291;28;82882;-60
2022/07/24 01:33:27;;;;;;;7.32;4.82;;;20.80;99.90;21.10;98438.00;;;;5029695;28;82832;-60
2022/07/24 01:35:53;;;;;;;5.70;4.78;;;20.90;99.90;21.10;98435.00;;;;5036050;28;82687;-60
2022/07/24 01:38:19;;;;;;;5.25;4.18;;;20.90;99.90;21.10;98440.00;;;;5028535;28;82787;-60
2022/07/24 01:40:46;;;;;;;8.85;4.88;;;20.90;99.90;21.20;98447.00;;;;5033214;28;82187;-60
2022/07/24 01:43:12;;;;;;;6.65;5.07;;;20.90;99.90;21.20;98447.00;;;;5032126;28;82295;-60
2022/07/24 01:45:38;;;;;;;9.70;4.90;;;21.00;99.90;21.20;98439.00;;;;5038054;28;82212;-59
2022/07/24 01:48:05;;;;;;;9.65;5.25;;;21.00;99.90;21.20;98446.00;;;;5028497;28;83580;-60
2022/07/24 01:50:32;;;;;;;6.28;4.80;;;21.00;99.90;21.20;98440.00;;;;5024227;28;83069;-62
2022/07/24 01:52:58;;;;;;;7.95;5.40;;;21.00;99.90;21.20;98445.00;;;;5032740;28;82241;-61
2022/07/24 01:55:24;;;;;;;8.20;5.50;;;20.90;99.90;21.10;98442.00;;;;5033875;28;83015;-61
2022/07/24 01:57:50;;;;;;;8.70;4.97;;;20.90;99.90;21.20;98445.00;;;;5034333;28;83393;-61
2022/07/24 02:00:17;;;;;;;12.07;6.30;;;20.90;99.90;21.20;98445.00;;;;5033255;28;82927;-61
2022/07/24 02:02:44;;;;;;;9.25;5.80;;;20.90;99.90;21.20;98448.00;;;;5037436;28;82453;-61
2022/07/24 02:05:13;;;;;;;8.07;5.10;;;20.90;99.90;21.20;98441.00;;;;5028731;28;81905;-60
2022/07/24 02:07:41;;;;;;;10.98;5.70;;;21.00;99.90;21.30;98441.00;;;;5032451;28;83405;-60
2022/07/24 02:10:09;;;;;;;9.68;5.40;;;21.00;99.90;21.30;98447.00;;;;5034663;28;82255;-61
2022/07/24 02:12:36;;;;;;;11.13;5.03;;;21.00;99.90;21.30;98452.00;;;;5032094;28;83373;-61
2022/07/24 02:15:23;;;;;;;9.30;5.40;;;21.00;99.90;21.30;98448.00;;;;5016758;28;82252;-60
2022/07/24 02:17:51;;;;;;;7.47;5.78;;;21.00;99.90;21.30;98444.00;;;;5033710;28;82094;-60
2022/07/24 02:20:19;;;;;;;11.43;5.30;;;21.00;99.90;21.30;98454.00;;;;5025573;28;84577;-60
2022/07/24 02:22:45;;;;;;;8.35;5.28;;;21.00;99.90;21.30;98444.00;;;;5035671;28;83578;-61
2022/07/24 02:25:12;;;;;;;10.52;5.20;;;21.00;99.90;21.30;98456.00;;;;5031950;28;82250;-61
2022/07/24 02:27:38;;;;;;;9.02;4.90;;;21.00;99.90;21.30;98460.00;;;;5011181;28;82391;-60
2022/07/24 02:30:10;;;;;;;8.45;5.10;;;21.00;99.90;21.40;98463.00;;;;5027503;28;82535;-60
2022/07/24 02:32:36;;;;;;;6.43;4.70;;;21.00;99.90;21.40;98450.00;;;;5006611;28;83422;-60
2022/07/24 02:35:03;;;;;;;5.95;4.57;;;21.10;99.90;21.40;98459.00;;;;5033847;28;81836;-59
2022/07/24 02:37:30;;;;;;;8.50;4.68;;;21.10;99.90;21.40;98454.00;;;;5030723;28;82219;-60
2022/07/24 02:39:56;;;;;;;9.02;4.53;;;21.10;99.90;21.50;98450.00;;;;5033354;28;82561;-60
2022/07/24 02:42:22;;;;;;;9.05;4.75;;;21.10;99.90;21.50;98451.00;;;;5029459;28;82324;-61
2022/07/24 02:44:48;;;;;;;7.50;4.00;;;21.20;99.90;21.50;98453.00;;;;5033602;28;82798;-61
2022/07/24 02:47:15;;;;;;;5.18;3.90;;;21.20;99.90;21.50;98450.00;;;;5007654;28;81955;-61
2022/07/24 02:49:41;;;;;;;7.85;4.18;;;21.20;99.90;21.50;98447.00;;;;5033912;28;82544;-60
2022/07/24 02:52:07;;;;;;;9.15;4.05;;;21.30;99.90;21.80;98446.00;;;;5033552;28;82548;-60
2022/07/24 02:54:33;;;;;;;8.10;3.92;;;21.40;99.90;22.00;98440.00;;;;5034915;28;82160;-60
2022/07/24 02:56:59;;;;;;;7.75;3.85;;;21.70;99.90;22.40;98444.00;;;;5029616;28;82234;-60
2022/07/24 02:59:25;;;;;;;10.90;4.03;;;22.00;99.90;22.80;98449.00;;;;5027891;28;82548;-60
2022/07/24 03:01:51;;;;;;;6.93;4.63;;;22.40;99.90;23.20;98445.00;;;;5028250;28;82217;-60
2022/07/24 03:04:17;;;;;;;6.78;3.50;;;22.70;99.90;23.50;98442.00;;;;5034447;28;82369;-59
2022/07/24 03:06:43;;;;;;;7.05;3.53;;;23.00;99.90;23.90;98432.00;;;;5026944;28;83171;-60
2022/07/24 03:09:10;;;;;;;6.05;3.78;;;23.40;99.90;24.50;98435.00;;;;5033792;28;84499;-59
2022/07/24 03:11:36;;;;;;;5.45;3.22;;;23.90;99.90;24.70;98431.00;;;;5014382;28;83497;-60
2022/07/24 03:14:02;;;;;;;5.63;3.30;;;24.10;99.90;24.90;98438.00;;;;5036372;28;81892;-59
2022/07/24 03:16:28;;;;;;;5.32;3.28;;;24.30;99.90;25.10;98434.00;;;;5012065;28;82536;-60
2022/07/24 03:18:54;;;;;;;4.95;3.00;;;24.50;99.90;25.20;98425.00;;;;5037865;28;83737;-60
2022/07/24 03:21:20;;;;;;;5.25;2.90;;;24.60;99.90;25.30;98424.00;;;;5034461;28;82463;-60
2022/07/24 03:23:47;;;;;;;16.70;3.50;;;24.70;99.90;25.60;98422.00;;;;5035835;28;81931;-61
2022/07/24 03:26:13;;;;;;;5.32;3.33;;;25.00;99.90;25.90;98424.00;;;;5029976;28;82199;-61
2022/07/24 03:28:39;;;;;;;4.45;2.75;;;25.20;99.90;26.10;98425.00;;;;5034781;28;82532;-61
2022/07/24 03:31:05;;;;;;;8.48;3.30;;;25.40;99.90;26.30;98432.00;;;;5024868;28;82616;-61
2022/07/24 03:33:31;;;;;;;4.85;3.67;;;25.60;99.90;26.30;98428.00;;;;5020651;28;83145;-61
2022/07/24 03:35:57;;;;;;;5.03;2.60;;;25.60;99.90;26.30;98415.00;;;;5036982;28;82232;-61
2022/07/24 03:38:23;;;;;;;4.60;2.75;;;25.70;99.90;26.60;98431.00;;;;5027907;28;83635;-61
2022/07/24 03:40:50;;;;;;;6.40;3.03;;;26.00;99.90;26.60;98425.00;;;;5037901;28;82342;-61
2022/07/24 03:43:16;;;;;;;4.60;2.80;;;25.90;99.90;26.70;98422.00;;;;5019511;28;82192;-61
2022/07/24 03:45:43;;;;;;;5.43;2.97;;;26.00;99.90;27.20;98430.00;;;;5029178;28;83264;-60
2022/07/24 03:48:09;;;;;;;7.40;3.60;;;26.50;99.90;27.80;98422.00;;;;5035896;28;83486;-61
2022/07/24 03:50:35;;;;;;;5.18;3.00;;;27.00;99.90;28.30;98420.00;;;;5017348;28;82043;-61
2022/07/24 03:53:02;;;;;;;4.65;2.72;;;27.40;99.90;28.70;98420.00;;;;5041192;28;81836;-60
2022/07/24 03:55:28;;;;;;;7.25;3.40;;;27.80;99.90;29.00;98428.00;;;;5032683;28;83114;-61
2022/07/24 03:57:54;;;;;;;4.00;2.90;;;28.10;99.90;29.20;98425.00;;;;5037482;28;83593;-62
2022/07/24 04:00:22;;;;;;;5.07;3.63;;;28.30;99.90;29.20;98417.00;;;;5032200;28;83380;-62
2022/07/24 04:02:53;;;;;;;10.05;4.32;;;28.30;99.90;29.50;98415.00;;;;5016307;28;82343;-62
2022/07/24 04:05:22;;;;;;;6.53;4.13;;;28.50;99.90;29.60;98420.00;;;;5006174;28;83633;-63
2022/07/24 04:07:49;;;;;;;6.93;3.30;;;28.60;99.90;29.60;98423.00;;;;5041976;28;82042;-62
2022/07/24 04:10:31;;;;;;;3.83;3.05;;;28.60;99.90;29.70;98419.00;;;;5040677;28;83540;-62
2022/07/24 04:12:57;;;;;;;7.70;3.60;;;28.70;99.90;29.60;98428.00;;;;5041149;28;81944;-62
2022/07/24 04:15:23;;;;;;;5.72;2.88;;;28.70;99.90;29.40;98428.00;;;;5034737;28;82225;-61
2022/07/24 04:17:49;;;;;;;8.73;3.22;;;28.50;99.90;29.20;98434.00;;;;5039042;28;82537;-61
2022/07/24 04:20:15;;;;;;;5.32;3.58;;;28.30;99.90;28.70;98429.00;;;;5031373;28;82821;-60
2022/07/24 04:22:41;;;;;;;7.50;3.90;;;27.90;99.90;28.60;98436.00;;;;5037793;28;83299;-61
2022/07/24 04:25:08;;;;;;;7.70;3.65;;;27.80;99.90;28.50;98429.00;;;;5022969;28;82658;-61
2022/07/24 04:27:34;;;;;;;14.57;4.03;;;27.70;99.90;28.40;98439.00;;;;5015588;28;84139;-61
2022/07/24 04:30:01;;;;;;;10.07;4.25;;;27.60;99.90;28.60;98445.00;;;;5031043;28;83320;-61
2022/07/24 04:32:27;;;;;;;10.98;4.10;;;27.70;99.90;28.60;98443.00;;;;5019872;28;81921;-60
2022/07/24 04:34:53;;;;;;;18.20;5.18;;;27.70;99.90;28.60;98426.00;;;;5036328;28;82301;-59
2022/07/24 04:37:19;;;;;;;16.13;5.20;;;27.80;99.90;28.60;98429.00;;;;5026910;28;82554;-60
2022/07/24 04:39:45;;;;;;;21.15;5.32;;;27.70;99.90;28.40;98434.00;;;;5026222;28;83028;-60
2022/07/24 04:42:11;;;;;;;38.15;5.60;;;27.60;99.90;28.70;98431.00;;;;5031077;28;82271;-60
2022/07/24 04:44:37;;;;;;;38.20;5.93;;;27.80;99.90;28.80;98437.00;;;;5030068;28;82610;-64
2022/07/24 04:47:03;;;;;;;34.75;5.90;;;27.80;99.90;28.90;98435.00;;;;5026976;28;84052;-64
2022/07/24 04:49:30;;;;;;;33.80;5.68;;;28.00;99.90;29.00;98437.00;;;;5036623;28;83251;-67
2022/07/24 04:51:56;;;;;;;38.15;5.90;;;28.20;99.90;29.10;98437.00;;;;5041741;28;81924;-66
2022/07/24 04:54:22;;;;;;;25.80;5.45;;;28.20;99.90;29.40;98433.00;;;;5031710;28;82659;-66
2022/07/24 04:56:48;;;;;;;27.05;5.20;;;28.40;99.90;29.50;98425.00;;;;5022223;28;83002;-64
2022/07/24 04:59:15;;;;;;;24.90;5.53;;;28.50;99.90;29.20;98441.00;;;;5029798;28;83180;-65
2022/07/24 05:01:41;;;;;;;20.52;5.47;;;28.20;99.90;29.00;98441.00;;;;5028537;28;81894;-68
2022/07/24 05:04:07;;;;;;;14.25;5.03;;;28.10;99.90;29.20;98442.00;;;;5035555;28;82362;-68
2022/07/24 05:06:34;;;;;;;18.63;5.70;;;28.30;99.90;29.40;98436.00;;;;5018326;28;82844;-68
2022/07/24 05:09:00;;;;;;;19.20;6.60;;;28.40;99.90;29.50;98440.00;;;;5031181;28;83217;-67
2022/07/24 05:11:27;;;;;;;21.35;5.80;;;28.50;99.90;30.00;98442.00;;;;5034577;28;82860;-68
2022/07/24 05:13:53;;;;;;;22.48;6.65;;;28.90;99.90;30.10;98422.00;;;;5035837;28;82870;-69
2022/07/24 05:16:19;;;;;;;14.38;5.97;;;29.10;99.90;30.10;98429.00;;;;5005930;28;83796;-72
2022/07/24 05:18:45;;;;;;;19.95;5.53;;;29.00;99.90;30.10;98429.00;;;;5025736;28;82383;-69
2022/07/24 05:21:11;;;;;;;15.32;5.70;;;29.10;99.90;30.00;98430.00;;;;5002961;28;82126;-71
2022/07/24 05:23:37;;;;;;;17.80;5.22;;;29.00;99.90;29.90;98422.00;;;;5014804;28;82602;-70
2022/07/24 05:26:03;;;;;;;16.20;5.45;;;28.90;99.90;30.50;98423.00;;;;5013378;28;83265;-69
2022/07/24 05:28:30;;;;;;;15.52;4.80;;;29.60;99.90;31.00;98418.00;;;;5025579;28;83502;-68
2022/07/24 05:30:56;;;;;;;12.07;4.85;;;29.90;99.90;31.00;98418.00;;;;5014287;28;81937;-69
2022/07/24 05:33:22;;;;;;;10.30;4.07;;;30.00;99.90;30.80;98422.00;;;;5019700;28;83113;-70
2022/07/24 05:35:48;;;;;;;10.75;3.47;;;29.90;99.90;30.00;98419.00;;;;5037155;28;83510;-69
2022/07/24 05:38:14;;;;;;;8.07;3.67;;;29.20;99.90;30.00;98424.00;;;;5019326;28;83382;-70
2022/07/24 05:40:40;;;;;;;7.28;4.35;;;29.20;99.90;29.90;98427.00;;;;5026425;28;82030;-68
2022/07/24 05:43:06;;;;;;;9.77;4.45;;;29.00;99.90;29.90;98426.00;;;;5028890;28;82205;-68
2022/07/24 05:45:32;;;;;;;9.45;3.80;;;29.60;99.90;30.50;98416.00;;;;5014612;28;82647;-66
2022/07/24 05:47:59;;;;;;;6.78;3.28;;;29.70;99.90;30.50;98419.00;;;;5033563;28;82514;-65
2022/07/24 05:50:25;;;;;;;6.38;3.00;;;29.60;99.90;30.50;98417.00;;;;5029512;28;82239;-66
2022/07/24 05:52:51;;;;;;;6.35;3.22;;;29.50;99.90;30.40;98416.00;;;;5020995;28;82193;-66
2022/07/24 05:55:17;;;;;;;7.65;2.92;;;29.10;99.90;29.90;98414.00;;;;5029713;28;82515;-66
2022/07/24 05:57:45;;;;;;;7.00;3.20;;;28.80;99.90;29.60;98411.00;;;;5042268;28;82274;-66
2022/07/24 06:00:15;;;;;;;5.60;2.88;;;28.80;99.90;29.70;98400.00;;;;5029409;28;83432;-65
2022/07/24 06:02:41;;;;;;;7.75;2.50;;;29.10;99.90;29.90;98407.00;;;;5028333;28;82830;-64
2022/07/24 06:05:08;;;;;;;5.85;2.95;;;;;30.20;98409.00;;;;5036505;28;83686;-68
2022/07/24 06:07:34;;;;;;;4.82;2.55;;;29.70;99.90;30.70;98398.00;;;;5026767;28;82405;-68
2022/07/24 06:10:00;;;;;;;4.97;2.65;;;30.00;99.90;31.00;98412.00;;;;5012625;28;82407;-67
2022/07/24 06:12:26;;;;;;;6.65;2.13;;;29.70;97.90;30.70;98398.00;;;;5029134;28;81876;-67
2022/07/24 06:14:53;;;;;;;2.55;2.08;;;29.80;99.90;30.70;98401.00;;;;5013319;28;84371;-66
2022/07/24 06:17:19;;;;;;;6.65;2.83;;;29.70;99.90;30.70;98404.00;;;;5027883;28;82785;-65
2022/07/24 06:19:45;;;;;;;4.38;2.65;;;29.70;99.90;30.70;98409.00;;;;5012924;28;84471;-66
2022/07/24 06:22:11;;;;;;;4.63;2.33;;;29.80;99.90;30.60;98414.00;;;;5028167;28;82279;-67
2022/07/24 06:24:37;;;;;;;4.65;2.80;;;29.60;99.90;30.50;98401.00;;;;5022084;28;83312;-66
2022/07/24 06:27:04;;;;;;;5.70;2.33;;;29.00;99.90;30.00;98409.00;;;;4985019;28;84457;-66
2022/07/24 06:29:31;;;;;;;5.05;2.45;;;28.60;99.90;29.40;98402.00;;;;5028274;28;82122;-68
2022/07/24 06:31:57;;;;;;;4.03;2.40;;;28.00;99.60;28.50;98402.00;;;;5023113;28;83130;-67
2022/07/24 06:34:24;;;;;;;6.57;1.92;;;27.90;99.90;28.30;98400.00;;;;5019555;28;82542;-68
2022/07/24 06:36:51;;;;;;;3.92;2.38;;;27.80;99.90;28.10;98405.00;;;;5027642;28;82658;-68
2022/07/24 06:39:18;;;;;;;3.58;2.30;;;27.80;99.90;28.00;98396.00;;;;5019139;28;82031;-68
2022/07/24 06:41:44;;;;;;;4.38;2.60;;;27.70;99.90;27.90;98396.00;;;;5036514;28;82210;-68
2022/07/24 06:44:24;;;;;;;5.18;2.47;;;27.70;99.90;27.80;98393.00;;;;5026315;28;82447;-68
2022/07/24 06:46:50;;;;;;;4.00;2.45;;;27.70;99.90;27.80;98400.00;;;;5027729;28;82155;-68
2022/07/24 06:49:17;;;;;;;7.20;2.25;;;27.40;99.90;27.60;98400.00;;;;5035359;28;83515;-68
2022/07/24 06:51:43;;;;;;;4.68;2.10;;;27.20;99.90;27.40;98394.00;;;;5030728;28;83533;-67
2022/07/24 06:54:09;;;;;;;4.75;2.38;;;27.10;99.90;27.30;98387.00;;;;5032143;28;82641;-62
2022/07/24 06:56:36;;;;;;;7.18;2.28;;;27.10;99.90;27.30;98382.00;;;;5035290;28;83257;-62
2022/07/24 06:59:02;;;;;;;2.78;2.10;;;27.10;99.90;27.30;98383.00;;;;5031401;28;81973;-62
2022/07/24 07:01:28;;;;;;;6.38;2.67;;;26.90;99.90;27.20;98390.00;;;;5029331;28;82277;-62
2022/07/24 07:03:55;;;;;;;4.28;2.17;;;26.90;99.90;27.10;98388.00;;;;5029922;28;82878;-62
2022/07/24 07:06:21;;;;;;;5.18;2.58;;;26.90;99.90;27.00;98385.00;;;;5034996;28;82566;-62
2022/07/24 07:08:48;;;;;;;6.90;2.80;;;27.00;99.90;27.10;98377.00;;;;5031948;28;82011;-62
2022/07/24 07:11:14;;;;;;;7.00;2.25;;;27.00;99.90;27.10;98371.00;;;;5031552;28;84248;-62
2022/07/24 07:13:40;;;;;;;8.13;2.45;;;26.90;99.90;27.10;98371.00;;;;5030801;28;84068;-62
2022/07/24 07:16:06;;;;;;;7.78;2.60;;;27.00;99.90;27.20;98370.00;;;;5019798;28;84884;-62
2022/07/24 07:18:35;;;;;;;13.23;9.10;;;27.00;99.90;27.20;98376.00;;;;5029728;28;83273;-62
2022/07/24 07:21:03;;;;;;;5.97;2.70;;;27.10;99.90;27.30;98370.00;;;;5032380;28;83444;-62
2022/07/24 07:23:29;;;;;;;5.22;2.65;;;27.20;99.90;27.40;98371.00;;;;5016300;28;84278;-62
2022/07/24 07:25:55;;;;;;;5.70;3.38;;;27.30;99.90;27.50;98375.00;;;;5019191;28;84291;-62
2022/07/24 07:28:22;;;;;;;3.72;1.83;;;27.30;99.90;27.50;98371.00;;;;5037729;28;81864;-62
2022/07/24 07:30:48;;;;;;;6.15;2.55;;;27.30;99.90;27.50;98378.00;;;;5028936;28;82471;-62
2022/07/24 07:33:14;;;;;;;4.22;2.17;;;27.30;99.90;27.40;98367.00;;;;5036262;28;83654;-62
2022/07/24 07:35:40;;;;;;;5.47;1.88;;;27.20;99.90;27.50;98364.00;;;;5034831;28;84002;-62
2022/07/24 07:38:06;;;;;;;3.35;2.28;;;27.40;99.90;27.60;98370.00;;;;5030241;28;83089;-63
2022/07/24 07:40:32;;;;;;;2.97;2.22;;;27.30;99.90;27.50;98359.00;;;;5032374;28;83506;-62
2022/07/24 07:42:59;;;;;;;5.80;2.70;;;27.30;99.90;27.40;98365.00;;;;5026445;28;82928;-63
2022/07/24 07:45:25;;;;;;;5.82;2.45;;;27.20;99.90;27.40;98359.00;;;;5018897;28;84279;-63
2022/07/24 07:47:51;;;;;;;5.28;2.80;;;27.10;99.90;27.30;98358.00;;;;5029697;28;81998;-61
2022/07/24 07:50:17;;;;;;;3.70;2.28;;;27.10;99.90;27.30;98352.00;;;;5032064;28;84360;-62
2022/07/24 07:52:43;;;;;;;4.93;2.30;;;27.00;99.90;27.20;98349.00;;;;5034724;28;82673;-63
2022/07/24 07:55:10;;;;;;;5.13;2.40;;;27.10;99.90;27.30;98356.00;;;;5027764;28;82349;-62
2022/07/24 07:57:37;;;;;;;3.28;2.03;;;27.10;99.90;27.30;98355.00;;;;5035977;28;83030;-63
2022/07/24 08:00:04;;;;;;;4.43;2.88;;;27.00;99.90;27.20;98351.00;;;;5030122;28;82586;-63
2022/07/24 08:02:39;;;;;;;12.90;9.73;;;26.90;99.90;27.10;98348.00;;;;5018683;28;84042;-63
2022/07/24 08:05:06;;;;;;;5.00;2.25;;;27.00;99.90;27.20;98354.00;;;;5025009;28;84472;-62
2022/07/24 08:07:33;;;;;;;4.95;2.75;;;27.10;99.90;27.30;98344.00;;;;5034054;28;82560;-65
2022/07/24 08:10:00;;;;;;;2.55;1.85;;;27.10;99.90;27.30;98352.00;;;;5034994;28;82320;-64
2022/07/24 08:12:26;;;;;;;5.18;3.17;;;27.20;99.90;27.30;98344.00;;;;5012310;28;82803;-65
2022/07/24 08:14:52;;;;;;;4.30;2.20;;;27.20;99.90;27.40;98349.00;;;;5034008;28;82324;-63
2022/07/24 08:17:18;;;;;;;5.75;2.22;;;27.20;99.90;27.40;98347.00;;;;5031191;28;81910;-63
2022/07/24 08:19:45;;;;;;;3.08;2.05;;;27.30;99.90;27.50;98346.00;;;;5034368;28;82202;-63
2022/07/24 08:22:12;;;;;;;6.85;2.60;;;27.30;99.90;27.50;98337.00;;;;5036169;28;82678;-62
2022/07/24 08:24:39;;;;;;;4.65;2.53;;;27.20;99.90;27.50;98342.00;;;;5018574;28;82271;-63
2022/07/24 08:27:06;;;;;;;5.53;2.40;;;27.10;99.90;27.40;98338.00;;;;5035956;28;82901;-64
2022/07/24 08:29:32;;;;;;;3.10;2.33;;;27.20;99.90;27.40;98341.00;;;;5016532;28;85069;-63
2022/07/24 08:31:59;;;;;;;4.25;2.75;;;27.10;99.90;27.40;98339.00;;;;5007927;28;82993;-63
2022/07/24 08:34:25;;;;;;;4.80;2.22;;;27.10;99.90;27.20;98345.00;;;;5028302;28;83742;-63
2022/07/24 08:36:52;;;;;;;4.82;2.60;;;;;27.20;98348.00;;;;5022993;28;82078;-63
2022/07/24 08:39:18;;;;;;;5.38;2.40;;;26.70;99.90;27.10;98335.00;;;;5016499;28;82381;-63
2022/07/24 08:41:45;;;;;;;3.97;2.83;;;26.90;99.90;27.10;98331.00;;;;5020769;28;82592;-62
2022/07/24 08:44:12;;;;;;;3.80;2.38;;;26.90;99.90;27.20;98331.00;;;;5030007;28;81908;-62
2022/07/24 08:46:40;;;;;;;2.92;2.30;;;26.90;99.90;27.20;98323.00;;;;5022438;28;82718;-62
2022/07/24 08:49:12;;;;;;;5.82;2.75;;;26.90;99.90;27.20;98324.00;;;;5030468;28;83013;-62
2022/07/24 08:51:41;;;;;;;4.70;2.50;;;27.00;99.90;27.30;98322.00;;;;5030964;28;83622;-62
2022/07/24 08:54:08;;;;;;;4.53;2.67;;;27.00;99.90;27.40;98323.00;;;;5016522;28;84373;-62
2022/07/24 08:56:39;;;;;;;4.57;2.38;;;27.30;99.90;27.60;98316.00;;;;5031887;28;82271;-62
2022/07/24 08:59:05;;;;;;;;;;;27.30;99.90;27.70;98326.00;;;;5033323;28;82863;-64
2022/07/24 09:01:31;;;;;;;8.70;5.60;;;27.50;99.90;27.70;98317.00;;;;5037538;28;83711;-64
2022/07/24 09:03:57;;;;;;;9.98;4.40;;;27.50;99.90;27.80;98313.00;;;;5033951;28;82776;-65
2022/07/24 09:06:23;;;;;;;8.48;3.42;;;27.60;99.90;27.90;98311.00;;;;5036296;28;81897;-64
2022/07/24 09:09:02;;;;;;;3.30;2.45;;;27.70;99.90;28.00;98310.00;;;;5013096;28;81688;-65
2022/07/24 09:11:29;;;;;;;6.38;2.78;;;27.60;99.90;27.90;98304.00;;;;5027446;28;82619;-64
2022/07/24 09:16:48;;;;;;;6.13;2.35;;;;;27.60;98308.00;;;;5032858;28;82923;-64
2022/07/24 09:19:16;;;;;;;5.15;2.47;;;27.50;99.90;27.80;98310.00;;;;5031998;28;82489;-64
2022/07/24 09:21:44;;;;;;;3.53;2.38;;;27.80;99.60;28.20;98309.00;;;;5037721;28;83160;-64
2022/07/24 09:24:14;;;;;;;4.63;2.60;;;28.00;99.40;28.40;98297.00;;;;5028336;28;82382;-64
2022/07/24 09:26:55;;;;;;;4.68;2.45;;;27.90;99.90;28.30;98302.00;;;;5011464;28;82243;-65
2022/07/24 09:29:25;;;;;;;3.72;2.47;;;27.70;99.90;28.10;98312.00;;;;5029499;28;82650;-65
2022/07/24 09:32:01;;;;;;;3.85;2.33;;;27.50;99.90;27.90;98312.00;;;;5026111;28;83669;-65
2022/07/24 09:34:39;;;;;;;2.92;2.40;;;27.30;99.90;27.80;98311.00;;;;5032611;28;82200;-65
2022/07/24 09:37:08;;;;;;;3.30;2.20;;;27.20;99.90;27.70;98311.00;;;;5030950;28;82475;-65
2022/07/24 09:39:37;;;;;;;4.28;2.45;;;27.20;99.90;27.70;98311.00;;;;5025661;28;83449;-64
2022/07/24 09:42:06;;;;;;;5.72;2.40;;;27.20;99.90;27.60;98314.00;;;;5020226;27;85704;-65
2022/07/24 09:44:33;;;;;;;4.63;2.58;;;27.10;99.90;27.60;98317.00;;;;5024627;28;83509;-65
2022/07/24 09:47:09;;;;;;;4.97;2.60;;;27.20;99.90;27.60;98309.00;;;;5027306;28;81993;-66
2022/07/24 09:49:38;;;;;;;4.47;2.30;;;27.10;99.90;27.70;98314.00;;;;5034522;28;82264;-66
2022/07/24 09:52:16;;;;;;;5.95;2.78;;;27.10;99.90;27.70;98314.00;;;;5016134;28;82707;-65
2022/07/24 09:54:47;;;;;;;3.60;2.42;;;27.20;99.90;27.80;98312.00;;;;5007014;28;82437;-65
2022/07/24 09:57:40;;;;;;;7.30;2.60;;;27.50;99.90;28.00;98305.00;;;;5004446;28;82459;-65
2022/07/24 10:00:07;;;;;;;4.00;2.30;;;28.00;99.90;28.40;98308.00;;;;5008885;28;82424;-65
2022/07/24 10:02:36;;;;;;;5.45;2.70;;;28.30;99.90;28.80;98308.00;;;;5021317;28;82363;-65
2022/07/24 10:05:05;;;;;;;4.05;2.40;;;28.40;99.90;29.00;98311.00;;;;5020533;28;82060;-65
2022/07/24 10:07:32;;;;;;;4.32;3.10;;;28.70;99.40;29.20;98306.00;;;;5000154;28;83078;-65
2022/07/24 10:10:00;;;;;;;3.55;2.33;;;29.00;99.90;29.50;98302.00;;;;5001962;28;83497;-65
2022/07/24 10:12:30;;;;;;;4.53;2.70;;;29.20;99.00;29.70;98304.00;;;;5021212;28;83780;-65
2022/07/24 10:14:59;;;;;;;2.83;2.47;;;29.30;99.90;29.70;98287.00;;;;5017990;28;83673;-65
2022/07/24 10:17:46;;;;;;;5.93;3.30;;;29.20;97.90;29.80;98295.00;;;;5013967;28;82511;-65
2022/07/24 10:20:42;;;;;;;5.25;2.33;;;28.90;99.90;29.50;98298.00;;;;5016760;28;82656;-65
2022/07/24 10:23:08;;;;;;;10.05;6.22;;;28.80;98.40;29.30;98302.00;;;;5018583;28;83601;-65
2022/07/24 10:26:05;;;;;;;5.15;2.10;;;28.50;98.40;28.80;98299.00;;;;5025878;28;83048;-65
2022/07/24 10:28:42;;;;;;;8.95;3.05;;;28.00;99.90;28.40;98300.00;;;;5013276;28;82012;-65
2022/07/24 10:31:13;;;;;;;6.45;2.58;;;27.80;99.90;28.10;98296.00;;;;4993986;28;85335;-64
2022/07/24 10:33:41;;;;;;;7.35;3.45;;;27.70;99.90;28.10;98292.00;;;;5006593;28;83379;-64
2022/07/24 10:36:21;;;;;;;5.90;2.42;;;27.90;99.90;28.30;98275.00;;;;5012628;28;83133;-64
2022/07/24 10:39:15;;;;;;;3.72;2.50;;;27.90;99.90;28.40;98289.00;;;;4986471;28;82470;-64
2022/07/24 10:41:42;;;;;;;4.30;2.50;;;28.00;99.90;28.30;98290.00;;;;4981915;28;82586;-64
2022/07/24 10:44:17;;;;;;;4.90;2.30;;;27.90;99.90;28.30;98294.00;;;;4998048;28;82603;-64
2022/07/24 10:47:25;;;;;;;4.85;2.22;;;27.90;99.90;28.30;98288.00;;;;5008890;28;83157;-64
2022/07/24 10:49:53;;;;;;;2.97;2.10;;;;;28.10;98292.00;;;;4985259;28;82165;-65
2022/07/24 10:52:26;;;;;;;6.18;2.80;;;27.50;99.90;27.90;98282.00;;;;5001823;28;82309;-65
2022/07/24 10:55:29;;;;;;;5.28;2.25;;;27.50;99.90;28.00;98275.00;;;;5017024;28;82103;-64
2022/07/24 10:57:56;;;;;;;3.88;2.60;;;27.60;99.90;28.10;98269.00;;;;5000934;28;82499;-64
2022/07/24 11:00:36;;;;;;;3.72;2.50;;;27.70;99.30;28.10;98268.00;;;;5000348;28;83104;-66